sensor_id;sensor_type;location;lat;lon;timestamp;temperature;humidity
65692;DHT22;52411;52.716;6.696;2022-08-16T00:00:19;21.00;99.90
65692;DHT22;52411;52.716;6.696;2022-08-16T00:02:45;20.90;99.90
65692;DHT22;52411;52.716;6.696;2022-08-16T00:05:12;21.00;99.90
65692;DHT22;52411;52.716;6.696;2022-08-16T00:07:39;21.00;99.90
65692;DHT22;52411;52.716;6.696;2022-08-16T00:10:07;21.10;99.90
65692;DHT22;52411;52.716;6.696;2022-08-16T00:12:33;21.10;99.90
65692;DHT22;52411;52.716;6.696;2022-08-16T00:15:01;21.20;99.90
65692;DHT22;52411;52.716;6.696;2022-08-16T00:17:27;21.20;99.90
65692;DHT22;52411;52.716;6.696;2022-08-16T00:19:53;21.20;99.90
65692;DHT22;52411;52.716;6.696;2022-08-16T00:22:19;21.10;99.90
65692;DHT22;52411;52.716;6.696;2022-08-16T00:24:45;21.00;99.90
65692;DHT22;52411;52.716;6.696;2022-08-16T00:27:11;21.00;99.90
65692;DHT22;52411;52.716;6.696;2022-08-16T00:29:37;21.00;99.90
65692;DHT22;52411;52.716;6.696;2022-08-16T00:32:04;21.00;99.90
65692;DHT22;52411;52.716;6.696;2022-08-16T00:34:31;20.90;99.90
65692;DHT22;52411;52.716;6.696;2022-08-16T00:36:57;20.80;99.90
65692;DHT22;52411;52.716;6.696;2022-08-16T00:39:23;20.70;99.90
65692;DHT22;52411;52.716;6.696;2022-08-16T00:41:49;20.60;99.90
65692;DHT22;52411;52.716;6.696;2022-08-16T00:44:18;20.50;99.90
65692;DHT22;52411;52.716;6.696;2022-08-16T00:46:50;20.40;99.90
65692;DHT22;52411;52.716;6.696;2022-08-16T00:49:17;20.40;99.90
65692;DHT22;52411;52.716;6.696;2022-08-16T00:51:43;20.40;99.90
65692;DHT22;52411;52.716;6.696;2022-08-16T00:54:09;20.40;99.90
65692;DHT22;52411;52.716;6.696;2022-08-16T00:56:38;20.30;99.90
65692;DHT22;52411;52.716;6.696;2022-08-16T00:59:06;20.30;99.90
65692;DHT22;52411;52.716;6.696;2022-08-16T01:01:33;20.30;99.90
65692;DHT22;52411;52.716;6.696;2022-08-16T01:03:59;20.30;99.90
65692;DHT22;52411;52.716;6.696;2022-08-16T01:06:25;20.30;99.90
65692;DHT22;52411;52.716;6.696;2022-08-16T01:08:53;20.30;99.90
65692;DHT22;52411;52.716;6.696;2022-08-16T01:11:24;20.40;99.90
65692;DHT22;52411;52.716;6.696;2022-08-16T01:13:54;20.40;99.90
65692;DHT22;52411;52.716;6.696;2022-08-16T01:16:23;20.40;99.90
65692;DHT22;52411;52.716;6.696;2022-08-16T01:18:59;20.40;99.90
65692;DHT22;52411;52.716;6.696;2022-08-16T01:21:40;20.40;99.90
65692;DHT22;52411;52.716;6.696;2022-08-16T01:24:22;20.50;99.90
65692;DHT22;52411;52.716;6.696;2022-08-16T01:26:51;20.50;99.90
65692;DHT22;52411;52.716;6.696;2022-08-16T01:29:25;20.50;99.90
65692;DHT22;52411;52.716;6.696;2022-08-16T01:31:52;20.50;99.90
65692;DHT22;52411;52.716;6.696;2022-08-16T01:34:18;20.60;99.90
65692;DHT22;52411;52.716;6.696;2022-08-16T01:36:44;20.60;99.90
65692;DHT22;52411;52.716;6.696;2022-08-16T01:39:14;20.60;99.90
65692;DHT22;52411;52.716;6.696;2022-08-16T01:41:40;20.70;99.90
65692;DHT22;52411;52.716;6.696;2022-08-16T01:44:06;20.60;99.90
65692;DHT22;52411;52.716;6.696;2022-08-16T01:46:33;20.40;99.90
65692;DHT22;52411;52.716;6.696;2022-08-16T01:51:38;20.30;99.90
65692;DHT22;52411;52.716;6.696;2022-08-16T01:54:04;20.20;99.90
65692;DHT22;52411;52.716;6.696;2022-08-16T01:56:31;20.00;99.90
65692;DHT22;52411;52.716;6.696;2022-08-16T01:59:00;20.00;99.90
65692;DHT22;52411;52.716;6.696;2022-08-16T02:01:27;19.90;99.90
65692;DHT22;52411;52.716;6.696;2022-08-16T02:03:53;19.90;99.90
65692;DHT22;52411;52.716;6.696;2022-08-16T02:06:19;19.80;99.90
65692;DHT22;52411;52.716;6.696;2022-08-16T02:08:45;19.80;99.90
65692;DHT22;52411;52.716;6.696;2022-08-16T02:11:12;19.70;99.90
65692;DHT22;52411;52.716;6.696;2022-08-16T02:13:38;19.70;99.90
65692;DHT22;52411;52.716;6.696;2022-08-16T02:16:08;19.60;99.90
65692;DHT22;52411;52.716;6.696;2022-08-16T02:18:34;19.60;99.90
65692;DHT22;52411;52.716;6.696;2022-08-16T02:21:00;19.50;99.90
65692;DHT22;52411;52.716;6.696;2022-08-16T02:23:27;19.50;99.90
65692;DHT22;52411;52.716;6.696;2022-08-16T02:25:53;19.50;99.90
65692;DHT22;52411;52.716;6.696;2022-08-16T02:28:19;19.50;99.90
65692;DHT22;52411;52.716;6.696;2022-08-16T02:30:46;19.50;99.90
65692;DHT22;52411;52.716;6.696;2022-08-16T02:33:12;19.40;99.90
65692;DHT22;52411;52.716;6.696;2022-08-16T02:35:38;19.40;99.90
65692;DHT22;52411;52.716;6.696;2022-08-16T02:38:04;19.40;99.90
65692;DHT22;52411;52.716;6.696;2022-08-16T02:40:31;19.40;99.90
65692;DHT22;52411;52.716;6.696;2022-08-16T02:42:57;19.40;99.90
65692;DHT22;52411;52.716;6.696;2022-08-16T02:45:26;19.30;99.90
65692;DHT22;52411;52.716;6.696;2022-08-16T02:47:52;19.20;99.90
65692;DHT22;52411;52.716;6.696;2022-08-16T02:50:19;19.20;99.90
65692;DHT22;52411;52.716;6.696;2022-08-16T02:52:45;19.10;99.90
65692;DHT22;52411;52.716;6.696;2022-08-16T02:55:11;19.00;99.90
65692;DHT22;52411;52.716;6.696;2022-08-16T02:57:36;19.10;99.90
65692;DHT22;52411;52.716;6.696;2022-08-16T03:00:05;19.10;99.90
65692;DHT22;52411;52.716;6.696;2022-08-16T03:02:34;18.90;99.90
65692;DHT22;52411;52.716;6.696;2022-08-16T03:05:00;18.60;99.90
65692;DHT22;52411;52.716;6.696;2022-08-16T03:07:26;18.40;99.90
65692;DHT22;52411;52.716;6.696;2022-08-16T03:09:52;18.30;99.90
65692;DHT22;52411;52.716;6.696;2022-08-16T03:12:17;18.20;99.90
65692;DHT22;52411;52.716;6.696;2022-08-16T03:14:44;18.20;99.90
65692;DHT22;52411;52.716;6.696;2022-08-16T03:17:10;18.10;99.90
65692;DHT22;52411;52.716;6.696;2022-08-16T03:19:36;18.10;99.90
65692;DHT22;52411;52.716;6.696;2022-08-16T03:22:02;18.20;99.90
65692;DHT22;52411;52.716;6.696;2022-08-16T03:24:28;18.10;99.90
65692;DHT22;52411;52.716;6.696;2022-08-16T03:26:58;18.20;99.90
65692;DHT22;52411;52.716;6.696;2022-08-16T03:29:26;18.20;99.90
65692;DHT22;52411;52.716;6.696;2022-08-16T03:31:52;18.10;99.90
65692;DHT22;52411;52.716;6.696;2022-08-16T03:34:18;18.00;99.90
65692;DHT22;52411;52.716;6.696;2022-08-16T03:36:44;17.80;99.90
65692;DHT22;52411;52.716;6.696;2022-08-16T03:39:10;17.70;99.90
65692;DHT22;52411;52.716;6.696;2022-08-16T03:41:36;17.70;99.90
65692;DHT22;52411;52.716;6.696;2022-08-16T03:44:03;17.80;99.90
65692;DHT22;52411;52.716;6.696;2022-08-16T03:46:32;17.80;99.90
65692;DHT22;52411;52.716;6.696;2022-08-16T03:48:57;17.80;99.90
65692;DHT22;52411;52.716;6.696;2022-08-16T03:51:23;17.80;99.90
65692;DHT22;52411;52.716;6.696;2022-08-16T03:53:48;17.80;99.90
65692;DHT22;52411;52.716;6.696;2022-08-16T03:56:14;17.90;99.90
65692;DHT22;52411;52.716;6.696;2022-08-16T03:58:40;17.90;99.90
65692;DHT22;52411;52.716;6.696;2022-08-16T04:01:06;17.90;99.90
65692;DHT22;52411;52.716;6.696;2022-08-16T04:03:32;17.90;99.90
65692;DHT22;52411;52.716;6.696;2022-08-16T04:05:57;17.80;99.90
65692;DHT22;52411;52.716;6.696;2022-08-16T04:08:23;17.80;99.90
65692;DHT22;52411;52.716;6.696;2022-08-16T04:10:50;17.80;99.90
65692;DHT22;52411;52.716;6.696;2022-08-16T04:13:16;17.80;99.90
65692;DHT22;52411;52.716;6.696;2022-08-16T04:15:41;17.90;99.90
65692;DHT22;52411;52.716;6.696;2022-08-16T04:18:07;17.90;99.90
65692;DHT22;52411;52.716;6.696;2022-08-16T04:20:34;17.90;99.90
65692;DHT22;52411;52.716;6.696;2022-08-16T04:23:00;17.90;99.90
65692;DHT22;52411;52.716;6.696;2022-08-16T04:25:26;17.80;99.90
65692;DHT22;52411;52.716;6.696;2022-08-16T04:27:53;17.80;99.90
65692;DHT22;52411;52.716;6.696;2022-08-16T04:30:19;17.80;99.90
65692;DHT22;52411;52.716;6.696;2022-08-16T04:32:47;17.80;99.90
65692;DHT22;52411;52.716;6.696;2022-08-16T04:35:15;17.80;99.90
65692;DHT22;52411;52.716;6.696;2022-08-16T04:37:44;17.60;99.90
65692;DHT22;52411;52.716;6.696;2022-08-16T04:40:11;17.60;99.90
65692;DHT22;52411;52.716;6.696;2022-08-16T04:42:38;17.70;99.90
65692;DHT22;52411;52.716;6.696;2022-08-16T04:45:10;17.80;99.90
65692;DHT22;52411;52.716;6.696;2022-08-16T04:47:36;17.80;99.90
65692;DHT22;52411;52.716;6.696;2022-08-16T04:50:17;17.90;99.90
65692;DHT22;52411;52.716;6.696;2022-08-16T04:52:46;17.90;99.90
65692;DHT22;52411;52.716;6.696;2022-08-16T04:55:18;18.00;99.90
65692;DHT22;52411;52.716;6.696;2022-08-16T04:57:46;18.00;99.90
65692;DHT22;52411;52.716;6.696;2022-08-16T05:00:16;17.90;99.90
65692;DHT22;52411;52.716;6.696;2022-08-16T05:02:42;18.00;99.90
65692;DHT22;52411;52.716;6.696;2022-08-16T05:05:08;18.00;99.90
65692;DHT22;52411;52.716;6.696;2022-08-16T05:07:34;18.00;99.90
65692;DHT22;52411;52.716;6.696;2022-08-16T05:10:02;18.00;99.90
65692;DHT22;52411;52.716;6.696;2022-08-16T05:12:27;18.10;99.90
65692;DHT22;52411;52.716;6.696;2022-08-16T05:14:53;18.10;99.90
65692;DHT22;52411;52.716;6.696;2022-08-16T05:17:19;18.10;99.90
65692;DHT22;52411;52.716;6.696;2022-08-16T05:19:44;18.20;99.90
65692;DHT22;52411;52.716;6.696;2022-08-16T05:22:10;18.20;99.90
65692;DHT22;52411;52.716;6.696;2022-08-16T05:24:37;18.30;99.90
65692;DHT22;52411;52.716;6.696;2022-08-16T05:27:03;18.30;99.90
65692;DHT22;52411;52.716;6.696;2022-08-16T05:29:29;18.40;99.90
65692;DHT22;52411;52.716;6.696;2022-08-16T05:31:54;18.40;99.90
65692;DHT22;52411;52.716;6.696;2022-08-16T05:34:20;18.50;99.90
65692;DHT22;52411;52.716;6.696;2022-08-16T05:36:49;18.60;99.90
65692;DHT22;52411;52.716;6.696;2022-08-16T05:39:16;18.70;99.90
65692;DHT22;52411;52.716;6.696;2022-08-16T05:41:42;18.80;99.90
65692;DHT22;52411;52.716;6.696;2022-08-16T05:44:07;18.90;99.90
65692;DHT22;52411;52.716;6.696;2022-08-16T05:46:33;19.00;99.90
65692;DHT22;52411;52.716;6.696;2022-08-16T05:48:59;19.10;99.90
65692;DHT22;52411;52.716;6.696;2022-08-16T05:51:25;19.40;99.90
65692;DHT22;52411;52.716;6.696;2022-08-16T05:53:51;19.60;99.90
65692;DHT22;52411;52.716;6.696;2022-08-16T05:56:16;19.80;99.90
65692;DHT22;52411;52.716;6.696;2022-08-16T05:58:42;20.00;99.90
65692;DHT22;52411;52.716;6.696;2022-08-16T06:01:08;20.10;99.90
65692;DHT22;52411;52.716;6.696;2022-08-16T06:03:34;20.30;99.90
65692;DHT22;52411;52.716;6.696;2022-08-16T06:06:00;20.40;99.90
65692;DHT22;52411;52.716;6.696;2022-08-16T06:08:25;20.60;99.90
65692;DHT22;52411;52.716;6.696;2022-08-16T06:10:51;20.60;99.90
65692;DHT22;52411;52.716;6.696;2022-08-16T06:13:17;20.70;99.90
65692;DHT22;52411;52.716;6.696;2022-08-16T06:15:42;20.60;99.90
65692;DHT22;52411;52.716;6.696;2022-08-16T06:18:08;20.60;99.90
65692;DHT22;52411;52.716;6.696;2022-08-16T06:20:34;20.50;99.90
65692;DHT22;52411;52.716;6.696;2022-08-16T06:22:59;20.40;99.90
65692;DHT22;52411;52.716;6.696;2022-08-16T06:25:26;20.40;99.90
65692;DHT22;52411;52.716;6.696;2022-08-16T06:27:52;20.40;99.90
65692;DHT22;52411;52.716;6.696;2022-08-16T06:30:19;20.40;99.90
65692;DHT22;52411;52.716;6.696;2022-08-16T06:32:45;20.30;99.90
65692;DHT22;52411;52.716;6.696;2022-08-16T06:35:12;20.40;99.90
65692;DHT22;52411;52.716;6.696;2022-08-16T06:37:38;20.40;99.90
65692;DHT22;52411;52.716;6.696;2022-08-16T06:40:06;20.40;99.90
65692;DHT22;52411;52.716;6.696;2022-08-16T06:42:32;20.50;99.90
65692;DHT22;52411;52.716;6.696;2022-08-16T06:44:58;20.50;99.90
65692;DHT22;52411;52.716;6.696;2022-08-16T06:47:24;20.70;99.90
65692;DHT22;52411;52.716;6.696;2022-08-16T06:49:49;20.80;99.90
65692;DHT22;52411;52.716;6.696;2022-08-16T06:52:15;20.80;99.90
65692;DHT22;52411;52.716;6.696;2022-08-16T06:54:41;20.80;99.90
65692;DHT22;52411;52.716;6.696;2022-08-16T06:57:06;20.80;99.90
65692;DHT22;52411;52.716;6.696;2022-08-16T06:59:35;20.70;99.90
65692;DHT22;52411;52.716;6.696;2022-08-16T07:02:01;20.70;99.90
65692;DHT22;52411;52.716;6.696;2022-08-16T07:04:27;20.80;99.90
65692;DHT22;52411;52.716;6.696;2022-08-16T07:06:53;20.90;99.90
65692;DHT22;52411;52.716;6.696;2022-08-16T07:09:19;21.00;99.90
65692;DHT22;52411;52.716;6.696;2022-08-16T07:11:44;21.10;99.90
65692;DHT22;52411;52.716;6.696;2022-08-16T07:14:10;21.20;99.90
65692;DHT22;52411;52.716;6.696;2022-08-16T07:16:37;21.30;99.90
65692;DHT22;52411;52.716;6.696;2022-08-16T07:19:09;21.30;99.90
65692;DHT22;52411;52.716;6.696;2022-08-16T07:21:35;21.50;99.90
65692;DHT22;52411;52.716;6.696;2022-08-16T07:24:02;21.50;99.90
65692;DHT22;52411;52.716;6.696;2022-08-16T07:26:29;21.60;99.90
65692;DHT22;52411;52.716;6.696;2022-08-16T07:28:55;21.70;99.90
65692;DHT22;52411;52.716;6.696;2022-08-16T07:31:20;21.80;99.90
65692;DHT22;52411;52.716;6.696;2022-08-16T07:33:46;21.90;99.90
65692;DHT22;52411;52.716;6.696;2022-08-16T07:36:13;21.90;99.90
65692;DHT22;52411;52.716;6.696;2022-08-16T07:38:40;22.10;99.90
65692;DHT22;52411;52.716;6.696;2022-08-16T07:41:06;22.10;99.90
65692;DHT22;52411;52.716;6.696;2022-08-16T07:43:32;22.20;99.90
65692;DHT22;52411;52.716;6.696;2022-08-16T07:45:59;22.30;99.90
65692;DHT22;52411;52.716;6.696;2022-08-16T07:48:25;22.30;99.90
65692;DHT22;52411;52.716;6.696;2022-08-16T07:50:51;22.30;99.90
65692;DHT22;52411;52.716;6.696;2022-08-16T07:53:17;22.50;99.90
65692;DHT22;52411;52.716;6.696;2022-08-16T07:55:43;22.60;99.90
65692;DHT22;52411;52.716;6.696;2022-08-16T07:58:08;22.60;99.90
65692;DHT22;52411;52.716;6.696;2022-08-16T08:00:35;22.80;99.90
65692;DHT22;52411;52.716;6.696;2022-08-16T08:03:00;22.90;99.90
65692;DHT22;52411;52.716;6.696;2022-08-16T08:05:27;23.00;99.90
65692;DHT22;52411;52.716;6.696;2022-08-16T08:07:53;23.00;99.90
65692;DHT22;52411;52.716;6.696;2022-08-16T08:10:21;23.10;99.90
65692;DHT22;52411;52.716;6.696;2022-08-16T08:12:48;23.20;99.90
65692;DHT22;52411;52.716;6.696;2022-08-16T08:15:14;23.20;99.90
65692;DHT22;52411;52.716;6.696;2022-08-16T08:17:40;23.30;99.90
65692;DHT22;52411;52.716;6.696;2022-08-16T08:20:09;23.40;99.90
65692;DHT22;52411;52.716;6.696;2022-08-16T08:22:36;23.40;99.90
65692;DHT22;52411;52.716;6.696;2022-08-16T08:25:05;23.60;99.90
65692;DHT22;52411;52.716;6.696;2022-08-16T08:27:31;23.70;99.90
65692;DHT22;52411;52.716;6.696;2022-08-16T08:29:56;23.80;99.90
65692;DHT22;52411;52.716;6.696;2022-08-16T08:32:23;23.90;99.90
65692;DHT22;52411;52.716;6.696;2022-08-16T08:34:53;23.90;99.90
65692;DHT22;52411;52.716;6.696;2022-08-16T08:37:19;23.90;99.90
65692;DHT22;52411;52.716;6.696;2022-08-16T08:39:47;24.00;99.90
65692;DHT22;52411;52.716;6.696;2022-08-16T08:42:13;24.00;99.90
65692;DHT22;52411;52.716;6.696;2022-08-16T08:44:40;24.10;99.90
65692;DHT22;52411;52.716;6.696;2022-08-16T08:47:06;24.20;99.90
65692;DHT22;52411;52.716;6.696;2022-08-16T08:49:34;24.30;99.90
65692;DHT22;52411;52.716;6.696;2022-08-16T08:52:00;24.30;99.90
65692;DHT22;52411;52.716;6.696;2022-08-16T08:54:26;24.50;99.90
65692;DHT22;52411;52.716;6.696;2022-08-16T08:56:53;24.50;99.90
65692;DHT22;52411;52.716;6.696;2022-08-16T08:59:18;24.60;99.90
65692;DHT22;52411;52.716;6.696;2022-08-16T09:01:44;24.60;99.90
65692;DHT22;52411;52.716;6.696;2022-08-16T09:04:12;24.70;99.90
65692;DHT22;52411;52.716;6.696;2022-08-16T09:06:37;24.80;99.90
65692;DHT22;52411;52.716;6.696;2022-08-16T09:09:04;24.80;99.90
65692;DHT22;52411;52.716;6.696;2022-08-16T09:11:31;24.90;99.90
65692;DHT22;52411;52.716;6.696;2022-08-16T09:13:57;25.00;99.90
65692;DHT22;52411;52.716;6.696;2022-08-16T09:16:23;25.00;99.90
65692;DHT22;52411;52.716;6.696;2022-08-16T09:18:49;25.00;99.90
65692;DHT22;52411;52.716;6.696;2022-08-16T09:21:15;25.20;99.90
65692;DHT22;52411;52.716;6.696;2022-08-16T09:23:41;25.30;99.90
65692;DHT22;52411;52.716;6.696;2022-08-16T09:26:09;25.30;99.90
65692;DHT22;52411;52.716;6.696;2022-08-16T09:28:36;25.40;99.90
65692;DHT22;52411;52.716;6.696;2022-08-16T09:31:03;25.40;99.90
65692;DHT22;52411;52.716;6.696;2022-08-16T09:33:29;25.50;99.00
65692;DHT22;52411;52.716;6.696;2022-08-16T09:35:54;25.50;98.20
65692;DHT22;52411;52.716;6.696;2022-08-16T09:38:22;25.50;97.00
65692;DHT22;52411;52.716;6.696;2022-08-16T09:40:49;25.60;99.30
65692;DHT22;52411;52.716;6.696;2022-08-16T09:43:18;25.70;97.70
65692;DHT22;52411;52.716;6.696;2022-08-16T09:45:44;25.80;97.00
65692;DHT22;52411;52.716;6.696;2022-08-16T09:48:12;25.80;97.30
65692;DHT22;52411;52.716;6.696;2022-08-16T09:50:40;25.80;97.40
65692;DHT22;52411;52.716;6.696;2022-08-16T09:53:12;25.80;97.60
65692;DHT22;52411;52.716;6.696;2022-08-16T09:55:39;26.00;97.10
65692;DHT22;52411;52.716;6.696;2022-08-16T09:58:05;26.00;97.80
65692;DHT22;52411;52.716;6.696;2022-08-16T10:00:31;26.10;97.00
65692;DHT22;52411;52.716;6.696;2022-08-16T10:02:57;26.20;98.80
65692;DHT22;52411;52.716;6.696;2022-08-16T10:05:23;26.30;98.10
65692;DHT22;52411;52.716;6.696;2022-08-16T10:07:49;26.40;98.40
65692;DHT22;52411;52.716;6.696;2022-08-16T10:10:21;26.40;96.50
65692;DHT22;52411;52.716;6.696;2022-08-16T10:12:48;26.40;97.10
65692;DHT22;52411;52.716;6.696;2022-08-16T10:15:33;26.60;96.00
65692;DHT22;52411;52.716;6.696;2022-08-16T10:18:00;26.60;97.10
65692;DHT22;52411;52.716;6.696;2022-08-16T10:20:27;26.80;97.30
65692;DHT22;52411;52.716;6.696;2022-08-16T10:22:53;26.90;94.90
65692;DHT22;52411;52.716;6.696;2022-08-16T10:25:19;26.90;95.90
65692;DHT22;52411;52.716;6.696;2022-08-16T10:27:46;26.90;94.80
65692;DHT22;52411;52.716;6.696;2022-08-16T10:30:14;27.10;96.80
65692;DHT22;52411;52.716;6.696;2022-08-16T10:32:40;27.10;95.60
65692;DHT22;52411;52.716;6.696;2022-08-16T10:35:06;27.20;96.00
65692;DHT22;52411;52.716;6.696;2022-08-16T10:37:32;27.30;94.40
65692;DHT22;52411;52.716;6.696;2022-08-16T10:39:57;27.30;96.40
65692;DHT22;52411;52.716;6.696;2022-08-16T10:42:24;27.50;95.60
65692;DHT22;52411;52.716;6.696;2022-08-16T10:44:49;27.60;94.70
65692;DHT22;52411;52.716;6.696;2022-08-16T10:47:15;27.60;93.90
65692;DHT22;52411;52.716;6.696;2022-08-16T10:49:41;27.60;93.90
65692;DHT22;52411;52.716;6.696;2022-08-16T10:52:07;27.70;94.10
65692;DHT22;52411;52.716;6.696;2022-08-16T10:54:33;27.80;91.60
65692;DHT22;52411;52.716;6.696;2022-08-16T10:57:00;27.80;93.00
65692;DHT22;52411;52.716;6.696;2022-08-16T10:59:27;27.80;92.40
65692;DHT22;52411;52.716;6.696;2022-08-16T11:01:56;27.80;91.00
65692;DHT22;52411;52.716;6.696;2022-08-16T11:04:22;27.90;89.00
65692;DHT22;52411;52.716;6.696;2022-08-16T11:06:47;27.80;90.20
65692;DHT22;52411;52.716;6.696;2022-08-16T11:09:13;28.00;92.40
65692;DHT22;52411;52.716;6.696;2022-08-16T11:11:39;28.00;90.90
65692;DHT22;52411;52.716;6.696;2022-08-16T11:14:04;28.00;91.10
65692;DHT22;52411;52.716;6.696;2022-08-16T11:16:31;28.00;89.20
65692;DHT22;52411;52.716;6.696;2022-08-16T11:18:57;28.30;88.80
65692;DHT22;52411;52.716;6.696;2022-08-16T11:21:23;28.30;84.70
65692;DHT22;52411;52.716;6.696;2022-08-16T11:23:53;28.40;85.00
65692;DHT22;52411;52.716;6.696;2022-08-16T11:26:20;28.50;81.30
65692;DHT22;52411;52.716;6.696;2022-08-16T11:28:47;28.40;83.10
65692;DHT22;52411;52.716;6.696;2022-08-16T11:31:15;28.50;80.20
65692;DHT22;52411;52.716;6.696;2022-08-16T11:33:41;28.50;87.80
65692;DHT22;52411;52.716;6.696;2022-08-16T11:36:07;28.40;83.30
65692;DHT22;52411;52.716;6.696;2022-08-16T11:38:32;28.30;80.60
65692;DHT22;52411;52.716;6.696;2022-08-16T11:40:59;28.10;82.00
65692;DHT22;52411;52.716;6.696;2022-08-16T11:43:31;27.90;86.60
65692;DHT22;52411;52.716;6.696;2022-08-16T11:46:00;27.70;80.80
65692;DHT22;52411;52.716;6.696;2022-08-16T11:48:27;27.80;84.80
65692;DHT22;52411;52.716;6.696;2022-08-16T11:50:54;27.80;84.50
65692;DHT22;52411;52.716;6.696;2022-08-16T11:53:22;28.00;79.40
65692;DHT22;52411;52.716;6.696;2022-08-16T11:55:49;28.30;80.30
65692;DHT22;52411;52.716;6.696;2022-08-16T11:58:15;28.50;82.10
65692;DHT22;52411;52.716;6.696;2022-08-16T12:00:43;28.70;79.10
65692;DHT22;52411;52.716;6.696;2022-08-16T12:03:09;28.90;75.40
65692;DHT22;52411;52.716;6.696;2022-08-16T12:05:36;29.00;79.10
65692;DHT22;52411;52.716;6.696;2022-08-16T12:08:06;29.10;80.20
65692;DHT22;52411;52.716;6.696;2022-08-16T12:10:33;29.10;77.70
65692;DHT22;52411;52.716;6.696;2022-08-16T12:12:59;29.00;79.60
65692;DHT22;52411;52.716;6.696;2022-08-16T12:15:26;29.10;77.50
65692;DHT22;52411;52.716;6.696;2022-08-16T12:17:53;29.20;78.60
65692;DHT22;52411;52.716;6.696;2022-08-16T12:20:22;29.20;75.00
65692;DHT22;52411;52.716;6.696;2022-08-16T12:22:51;29.30;77.20
65692;DHT22;52411;52.716;6.696;2022-08-16T12:25:18;29.50;77.30
65692;DHT22;52411;52.716;6.696;2022-08-16T12:27:48;29.50;77.70
65692;DHT22;52411;52.716;6.696;2022-08-16T12:30:18;29.60;76.30
65692;DHT22;52411;52.716;6.696;2022-08-16T12:32:44;29.70;73.00
65692;DHT22;52411;52.716;6.696;2022-08-16T12:35:13;30.00;74.70
65692;DHT22;52411;52.716;6.696;2022-08-16T12:37:40;30.10;72.60
65692;DHT22;52411;52.716;6.696;2022-08-16T12:40:08;30.00;74.40
65692;DHT22;52411;52.716;6.696;2022-08-16T12:42:34;29.80;72.40
65692;DHT22;52411;52.716;6.696;2022-08-16T12:45:04;29.70;72.20
65692;DHT22;52411;52.716;6.696;2022-08-16T12:47:30;29.60;70.60
65692;DHT22;52411;52.716;6.696;2022-08-16T12:50:14;29.50;70.90
65692;DHT22;52411;52.716;6.696;2022-08-16T12:52:40;29.40;71.40
65692;DHT22;52411;52.716;6.696;2022-08-16T12:55:06;29.10;70.30
65692;DHT22;52411;52.716;6.696;2022-08-16T12:57:32;28.90;70.60
65692;DHT22;52411;52.716;6.696;2022-08-16T12:59:58;28.90;70.60
65692;DHT22;52411;52.716;6.696;2022-08-16T13:02:24;29.20;71.10
65692;DHT22;52411;52.716;6.696;2022-08-16T13:04:51;29.50;70.90
65692;DHT22;52411;52.716;6.696;2022-08-16T13:07:16;29.80;70.60
65692;DHT22;52411;52.716;6.696;2022-08-16T13:09:42;30.00;70.30
65692;DHT22;52411;52.716;6.696;2022-08-16T13:12:23;30.20;70.80
65692;DHT22;52411;52.716;6.696;2022-08-16T13:14:52;30.40;71.10
65692;DHT22;52411;52.716;6.696;2022-08-16T13:17:24;30.80;71.40
65692;DHT22;52411;52.716;6.696;2022-08-16T13:19:52;31.10;67.90
65692;DHT22;52411;52.716;6.696;2022-08-16T13:22:19;31.10;66.30
65692;DHT22;52411;52.716;6.696;2022-08-16T13:24:45;31.00;67.60
65692;DHT22;52411;52.716;6.696;2022-08-16T13:27:11;31.00;67.60
65692;DHT22;52411;52.716;6.696;2022-08-16T13:29:37;31.20;69.20
65692;DHT22;52411;52.716;6.696;2022-08-16T13:32:03;31.00;67.50
65692;DHT22;52411;52.716;6.696;2022-08-16T13:34:29;31.00;67.40
65692;DHT22;52411;52.716;6.696;2022-08-16T13:36:55;31.10;67.40
65692;DHT22;52411;52.716;6.696;2022-08-16T13:39:20;31.10;67.20
65692;DHT22;52411;52.716;6.696;2022-08-16T13:41:46;31.00;65.10
65692;DHT22;52411;52.716;6.696;2022-08-16T13:44:12;31.00;65.20
65692;DHT22;52411;52.716;6.696;2022-08-16T13:46:37;31.10;65.30
65692;DHT22;52411;52.716;6.696;2022-08-16T13:49:03;31.00;64.80
65692;DHT22;52411;52.716;6.696;2022-08-16T13:51:29;30.60;64.80
65692;DHT22;52411;52.716;6.696;2022-08-16T13:53:57;30.40;64.50
65692;DHT22;52411;52.716;6.696;2022-08-16T13:56:23;30.60;64.10
65692;DHT22;52411;52.716;6.696;2022-08-16T13:58:52;30.60;63.50
65692;DHT22;52411;52.716;6.696;2022-08-16T14:01:18;30.20;63.90
65692;DHT22;52411;52.716;6.696;2022-08-16T14:03:44;30.10;63.50
65692;DHT22;52411;52.716;6.696;2022-08-16T14:06:11;30.30;63.70
65692;DHT22;52411;52.716;6.696;2022-08-16T14:08:38;30.60;63.50
65692;DHT22;52411;52.716;6.696;2022-08-16T14:11:04;30.50;62.90
65692;DHT22;52411;52.716;6.696;2022-08-16T14:13:31;30.40;63.70
65692;DHT22;52411;52.716;6.696;2022-08-16T14:15:57;30.30;64.00
65692;DHT22;52411;52.716;6.696;2022-08-16T14:18:22;30.50;65.20
65692;DHT22;52411;52.716;6.696;2022-08-16T14:20:48;30.70;65.00
65692;DHT22;52411;52.716;6.696;2022-08-16T14:23:15;30.60;63.90
65692;DHT22;52411;52.716;6.696;2022-08-16T14:25:41;30.70;64.10
65692;DHT22;52411;52.716;6.696;2022-08-16T14:28:07;30.70;63.60
65692;DHT22;52411;52.716;6.696;2022-08-16T14:30:33;30.60;63.10
65692;DHT22;52411;52.716;6.696;2022-08-16T14:32:59;30.20;64.00
65692;DHT22;52411;52.716;6.696;2022-08-16T14:35:28;30.00;64.90
65692;DHT22;52411;52.716;6.696;2022-08-16T14:37:54;29.60;65.20
65692;DHT22;52411;52.716;6.696;2022-08-16T14:40:20;29.40;65.90
65692;DHT22;52411;52.716;6.696;2022-08-16T14:42:47;29.10;65.50
65692;DHT22;52411;52.716;6.696;2022-08-16T14:45:19;29.00;66.20
65692;DHT22;52411;52.716;6.696;2022-08-16T14:47:45;29.00;66.10
65692;DHT22;52411;52.716;6.696;2022-08-16T14:50:14;29.10;67.10
65692;DHT22;52411;52.716;6.696;2022-08-16T14:52:43;29.10;67.60
65692;DHT22;52411;52.716;6.696;2022-08-16T14:55:09;29.20;68.30
65692;DHT22;52411;52.716;6.696;2022-08-16T14:57:35;29.30;68.80
65692;DHT22;52411;52.716;6.696;2022-08-16T15:00:01;29.30;68.10
65692;DHT22;52411;52.716;6.696;2022-08-16T15:02:27;29.20;68.00
65692;DHT22;52411;52.716;6.696;2022-08-16T15:04:53;29.20;68.70
65692;DHT22;52411;52.716;6.696;2022-08-16T15:07:20;29.30;69.00
65692;DHT22;52411;52.716;6.696;2022-08-16T15:09:47;29.50;69.40
65692;DHT22;52411;52.716;6.696;2022-08-16T15:12:16;30.00;69.80
65692;DHT22;52411;52.716;6.696;2022-08-16T15:14:44;30.10;70.40
65692;DHT22;52411;52.716;6.696;2022-08-16T15:17:11;30.00;70.20
65692;DHT22;52411;52.716;6.696;2022-08-16T15:19:37;29.70;70.80
65692;DHT22;52411;52.716;6.696;2022-08-16T15:22:03;29.50;71.10
65692;DHT22;52411;52.716;6.696;2022-08-16T15:24:35;29.20;71.20
65692;DHT22;52411;52.716;6.696;2022-08-16T15:27:00;29.10;71.40
65692;DHT22;52411;52.716;6.696;2022-08-16T15:29:26;29.20;71.70